X  Fechar Dados meteorológicos de METAR da aviação        LGTS Thessaloniki Macedonia International
Temperatura
8°C Temperatura
8°C Ponto de orvalho
100% Umidade



Vento
3 MPH
6 KM/H
1 M/S
3 NÓS



100°
L
Condições atuais

Mostly Cloudy with Fog Muito nublado , Névoa
Pressão 1017 (hPa) - 30.03 (inHg)
Visibilidade 0 (milha) - 0 (km)
Aeroporto
Código do aeroporto LGTS

Localização: Thessaloniki Macedonia International
Distância: 85 (mi)

Metar:
METAR LGTS 230650Z 10003KT 0300 R10/1000 R28/0275 FG BKN001 08/08 Q1017 BECMG 1500 BR BKN005

Hora: 23-02-2024 08:50 EET